Time;durP1;ratioP1;P1;durP2;ratioP2;P2;SDS_P1;SDS_P2;PMS_P1;PMS_P2;Temp;Humidity;BMP_temperature;BMP_pressure;BME280_temperature;BME280_humidity;BME280_pressure;Samples;Min_cycle;Max_cycle;Signal;HPM_P1;HPM_P2
2021/08/05 00:01:00;;;;;;;6.70;3.70;;;16.40;96.70;;;;;;5038049;28;20056;-69
2021/08/05 00:03:26;;;;;;;6.05;3.67;;;16.40;96.70;;;;;;5036456;28;20025;-68
2021/08/05 00:05:51;;;;;;;5.18;3.80;;;16.40;96.70;;;;;;5036155;28;20167;-70
2021/08/05 00:08:17;;;;;;;4.22;3.30;;;16.50;96.70;;;;;;5038150;28;20048;-69
2021/08/05 00:10:43;;;;;;;5.63;4.05;;;16.50;96.70;;;;;;5038814;28;20151;-69
2021/08/05 00:13:09;;;;;;;6.80;3.88;;;16.50;96.70;;;;;;5038538;28;20061;-69
2021/08/05 00:15:34;;;;;;;4.72;3.58;;;16.50;96.70;;;;;;5035379;28;20045;-69
2021/08/05 00:18:00;;;;;;;4.95;3.70;;;16.50;96.70;;;;;;5038152;28;20472;-69
2021/08/05 00:20:26;;;;;;;5.05;2.90;;;16.50;96.70;;;;;;5034957;28;20025;-69
2021/08/05 00:22:51;;;;;;;4.65;3.42;;;16.50;96.70;;;;;;5040692;28;20450;-69
2021/08/05 00:25:17;;;;;;;6.00;3.90;;;16.50;96.70;;;;;;5036237;28;20033;-69
2021/08/05 00:27:43;;;;;;;5.47;3.53;;;16.50;96.70;;;;;;5037466;28;20032;-69
2021/08/05 00:30:09;;;;;;;6.13;3.72;;;16.50;96.70;;;;;;5037973;28;20044;-69
2021/08/05 00:32:35;;;;;;;4.40;3.50;;;16.50;96.70;;;;;;5038419;28;20040;-70
2021/08/05 00:35:01;;;;;;;6.22;3.67;;;16.40;96.70;;;;;;5036554;28;20033;-69
2021/08/05 00:37:27;;;;;;;4.88;3.10;;;16.40;96.70;;;;;;5034280;28;20453;-68
2021/08/05 00:39:53;;;;;;;4.28;3.33;;;16.40;96.70;;;;;;5037426;28;20486;-67
2021/08/05 00:42:19;;;;;;;7.15;3.30;;;16.50;96.70;;;;;;5036830;28;20033;-69
2021/08/05 00:44:44;;;;;;;5.28;2.67;;;16.40;96.70;;;;;;5039831;28;20033;-69
2021/08/05 00:47:10;;;;;;;4.80;3.15;;;16.50;96.70;;;;;;5040560;28;20104;-69
2021/08/05 00:49:36;;;;;;;4.93;3.45;;;16.50;96.70;;;;;;5038287;28;20068;-69
2021/08/05 00:52:02;;;;;;;3.70;2.97;;;16.50;96.70;;;;;;5040952;28;20033;-69
2021/08/05 00:54:27;;;;;;;4.63;3.60;;;16.40;96.70;;;;;;5037769;28;20047;-69
2021/08/05 00:56:53;;;;;;;5.63;3.40;;;16.40;96.70;;;;;;5039889;28;20026;-68
2021/08/05 00:59:19;;;;;;;4.10;3.30;;;16.40;96.70;;;;;;5040934;28;20029;-69
2021/08/05 01:01:58;;;;;;;6.57;3.35;;;16.50;96.70;;;;;;5039998;28;20744;-69
2021/08/05 01:04:24;;;;;;;5.20;3.38;;;16.40;96.60;;;;;;5037884;28;20059;-67
2021/08/05 01:07:13;;;;;;;6.18;3.08;;;16.40;96.60;;;;;;5039016;28;20033;-69
2021/08/05 01:10:02;;;;;;;4.43;2.85;;;16.50;96.60;;;;;;5039133;28;20044;-69
2021/08/05 01:12:55;;;;;;;4.18;3.13;;;16.50;96.60;;;;;;5039371;28;20037;-70
2021/08/05 01:15:26;;;;;;;4.78;3.22;;;16.40;96.60;;;;;;5038862;28;20418;-69
2021/08/05 01:18:07;;;;;;;4.25;3.03;;;16.50;96.70;;;;;;5040168;28;20025;-69
2021/08/05 01:20:33;;;;;;;3.97;2.78;;;16.40;96.60;;;;;;5041357;28;20045;-69
2021/08/05 01:23:28;;;;;;;6.50;2.80;;;16.40;96.70;;;;;;5041102;28;20033;-69
2021/08/05 01:26:05;;;;;;;4.70;2.67;;;16.50;96.70;;;;;;5030282;28;20060;-69
2021/08/05 01:28:32;;;;;;;3.53;2.63;;;16.40;96.50;;;;;;5038696;28;20053;-69
2021/08/05 01:31:00;;;;;;;6.10;2.97;;;16.40;96.50;;;;;;5040439;28;20045;-70
2021/08/05 01:33:26;;;;;;;4.65;2.53;;;16.40;96.50;;;;;;5044107;28;20052;-70
2021/08/05 01:35:53;;;;;;;3.92;2.50;;;16.40;96.50;;;;;;5039283;28;20115;-70
2021/08/05 01:38:19;;;;;;;4.22;2.60;;;16.40;96.40;;;;;;5038645;28;20391;-70
2021/08/05 01:40:50;;;;;;;4.68;2.60;;;16.40;96.30;;;;;;5040808;28;20080;-69
2021/08/05 01:43:17;;;;;;;4.38;2.35;;;16.40;96.30;;;;;;5036526;28;20411;-70
2021/08/05 01:45:44;;;;;;;5.20;2.60;;;16.30;96.30;;;;;;5039317;28;20124;-69
2021/08/05 01:48:12;;;;;;;3.78;2.10;;;16.30;96.00;;;;;;5040092;28;20115;-69
2021/08/05 01:50:42;;;;;;;2.95;2.00;;;16.30;96.00;;;;;;5037798;28;20035;-69
2021/08/05 01:53:07;;;;;;;3.83;2.10;;;16.30;95.90;;;;;;5037681;28;20036;-69
2021/08/05 01:55:33;;;;;;;4.68;1.95;;;16.30;95.60;;;;;;5039533;28;20030;-69
2021/08/05 01:57:59;;;;;;;3.35;2.22;;;16.30;95.50;;;;;;5034664;28;20032;-69
2021/08/05 02:00:25;;;;;;;4.70;2.20;;;16.30;95.50;;;;;;5039782;28;20038;-70
2021/08/05 02:02:54;;;;;;;8.63;2.83;;;16.20;95.40;;;;;;5040448;28;20446;-68
2021/08/05 02:05:30;;;;;;;4.10;2.15;;;16.20;95.40;;;;;;5038008;28;20083;-69
2021/08/05 02:08:06;;;;;;;3.55;2.35;;;16.20;95.40;;;;;;5041601;28;20051;-69
2021/08/05 02:10:35;;;;;;;5.68;2.33;;;16.20;95.30;;;;;;5039241;28;20204;-70
2021/08/05 02:13:17;;;;;;;5.35;2.10;;;16.20;95.10;;;;;;5038631;28;20028;-69
2021/08/05 02:16:05;;;;;;;5.40;2.63;;;16.20;95.10;;;;;;5034728;28;20100;-69
2021/08/05 02:18:33;;;;;;;3.58;1.75;;;16.20;95.10;;;;;;5039492;28;20547;-70
2021/08/05 02:21:00;;;;;;;5.43;2.15;;;16.20;95.10;;;;;;5036156;28;20068;-69
2021/08/05 02:23:27;;;;;;;4.40;2.10;;;16.20;95.20;;;;;;5040692;28;20029;-68
2021/08/05 02:25:54;;;;;;;4.25;2.30;;;16.20;95.10;;;;;;5036267;28;20054;-68
2021/08/05 02:28:22;;;;;;;4.53;2.25;;;16.10;94.90;;;;;;5038658;28;20609;-68
2021/08/05 02:30:49;;;;;;;4.57;2.30;;;16.10;95.10;;;;;;5038205;28;20055;-69
2021/08/05 02:33:16;;;;;;;4.57;2.20;;;16.10;95.00;;;;;;5036626;28;20183;-70
2021/08/05 02:35:44;;;;;;;2.58;1.98;;;16.10;95.00;;;;;;5038049;28;20052;-70
2021/08/05 02:38:10;;;;;;;3.15;2.15;;;16.20;95.00;;;;;;5039096;28;20110;-69
2021/08/05 02:40:37;;;;;;;3.65;2.20;;;16.10;95.00;;;;;;5037825;28;20389;-68
2021/08/05 02:43:06;;;;;;;6.55;2.50;;;16.10;94.90;;;;;;5018762;28;20475;-69
2021/08/05 02:45:34;;;;;;;3.70;1.73;;;16.10;94.80;;;;;;5037260;28;20049;-70
2021/08/05 02:48:01;;;;;;;4.90;2.30;;;16.10;94.80;;;;;;5039230;28;20460;-70
2021/08/05 02:50:31;;;;;;;3.53;2.22;;;16.10;94.90;;;;;;5031190;28;20036;-69
2021/08/05 02:52:57;;;;;;;3.40;1.88;;;16.10;94.70;;;;;;5036254;28;20026;-68
2021/08/05 02:55:24;;;;;;;3.75;1.80;;;16.10;94.50;;;;;;5038687;28;20033;-69
2021/08/05 02:57:53;;;;;;;2.75;2.17;;;16.10;94.40;;;;;;5038077;28;20040;-69
2021/08/05 03:00:20;;;;;;;2.72;2.05;;;16.10;94.40;;;;;;5036494;28;20033;-69
2021/08/05 03:02:46;;;;;;;6.13;2.00;;;16.10;94.30;;;;;;5038438;28;20035;-70
2021/08/05 03:05:14;;;;;;;2.72;2.00;;;16.10;94.30;;;;;;5035114;28;20108;-69
2021/08/05 03:07:40;;;;;;;3.50;1.90;;;16.00;94.30;;;;;;5036455;28;20443;-69
2021/08/05 03:10:07;;;;;;;4.13;1.70;;;16.10;94.30;;;;;;5036255;28;20041;-69
2021/08/05 03:12:33;;;;;;;4.07;2.00;;;16.10;94.30;;;;;;5038487;28;20040;-67
2021/08/05 03:14:59;;;;;;;2.58;2.13;;;16.10;94.10;;;;;;5036001;28;20038;-69
2021/08/05 03:17:25;;;;;;;2.47;1.90;;;16.00;94.00;;;;;;5040268;28;20029;-70
2021/08/05 03:19:50;;;;;;;4.35;2.05;;;16.00;94.20;;;;;;5020361;28;20021;-69
2021/08/05 03:22:16;;;;;;;3.70;2.15;;;16.00;94.20;;;;;;5039155;28;20021;-69
2021/08/05 03:24:42;;;;;;;4.18;1.88;;;16.00;94.30;;;;;;5017051;28;20025;-67
2021/08/05 03:27:09;;;;;;;4.32;2.20;;;16.00;94.20;;;;;;5037904;28;20100;-69
2021/08/05 03:29:35;;;;;;;2.45;1.80;;;16.00;94.20;;;;;;5038012;28;20041;-69
2021/08/05 03:32:01;;;;;;;5.88;2.03;;;16.00;94.10;;;;;;5038445;28;20491;-68
2021/08/05 03:34:27;;;;;;;3.13;2.15;;;16.00;94.00;;;;;;5038123;28;20136;-69
2021/08/05 03:36:53;;;;;;;4.38;1.98;;;16.00;93.90;;;;;;5036579;28;20032;-70
2021/08/05 03:39:19;;;;;;;3.50;1.92;;;16.00;93.80;;;;;;5036519;28;20493;-69
2021/08/05 03:41:45;;;;;;;2.97;1.65;;;16.00;93.80;;;;;;5036080;28;20087;-69
2021/08/05 03:44:10;;;;;;;3.10;2.00;;;16.00;93.80;;;;;;5031513;28;20029;-69
2021/08/05 03:46:36;;;;;;;3.05;2.10;;;16.00;93.80;;;;;;5037029;28;20029;-69
2021/08/05 03:49:02;;;;;;;4.00;2.10;;;16.00;93.70;;;;;;5034454;28;20551;-69
2021/08/05 03:51:28;;;;;;;2.63;1.60;;;16.00;93.50;;;;;;5033620;28;20091;-69
2021/08/05 03:53:53;;;;;;;3.92;1.90;;;16.00;93.40;;;;;;5039210;28;20594;-69
2021/08/05 03:56:19;;;;;;;4.45;2.08;;;16.00;93.60;;;;;;5035587;28;20041;-68
2021/08/05 03:58:45;;;;;;;3.75;1.92;;;15.90;93.40;;;;;;5034720;28;20419;-69
2021/08/05 04:01:11;;;;;;;3.00;1.83;;;15.90;93.40;;;;;;5030688;28;20610;-68
2021/08/05 04:03:36;;;;;;;4.88;2.00;;;16.00;93.60;;;;;;5037032;28;20128;-70
2021/08/05 04:06:02;;;;;;;2.78;2.08;;;16.00;93.60;;;;;;5036413;28;20032;-69
2021/08/05 04:08:28;;;;;;;2.88;1.60;;;16.00;93.50;;;;;;5033902;28;20032;-69
2021/08/05 04:10:54;;;;;;;3.80;2.03;;;16.00;93.50;;;;;;5037932;28;20399;-70
2021/08/05 04:13:20;;;;;;;3.85;2.80;;;16.00;93.50;;;;;;5035731;28;20029;-69
2021/08/05 04:15:45;;;;;;;3.33;1.98;;;16.00;93.40;;;;;;5034579;28;20028;-68
2021/08/05 04:18:11;;;;;;;4.95;2.63;;;16.00;93.40;;;;;;5041621;28;20033;-68
2021/08/05 04:20:38;;;;;;;3.45;1.98;;;16.00;93.30;;;;;;5008999;28;20392;-69
2021/08/05 04:23:03;;;;;;;3.47;2.03;;;16.10;93.30;;;;;;5039772;28;20025;-69
2021/08/05 04:25:29;;;;;;;2.05;1.58;;;16.00;93.40;;;;;;5039657;28;20059;-69
2021/08/05 04:27:54;;;;;;;2.67;1.65;;;16.10;93.60;;;;;;5041304;28;20041;-69
2021/08/05 04:30:21;;;;;;;2.25;1.67;;;16.10;93.50;;;;;;5037320;28;20112;-69
2021/08/05 04:32:48;;;;;;;4.03;2.20;;;16.10;93.60;;;;;;5041711;28;20433;-70
2021/08/05 04:35:14;;;;;;;2.58;1.88;;;16.10;93.60;;;;;;5040309;28;20033;-69
2021/08/05 04:37:51;;;;;;;4.28;2.20;;;16.10;93.40;;;;;;5042914;28;20495;-69
2021/08/05 04:40:17;;;;;;;4.18;1.98;;;16.10;93.30;;;;;;5039955;28;20032;-69
2021/08/05 04:42:43;;;;;;;2.25;1.80;;;16.10;93.30;;;;;;5023868;28;20476;-70
2021/08/05 04:45:10;;;;;;;3.75;2.42;;;16.10;93.30;;;;;;5038460;28;20048;-69
2021/08/05 04:47:53;;;;;;;7.75;2.90;;;16.10;93.20;;;;;;5039798;28;20033;-69
2021/08/05 04:50:20;;;;;;;11.45;4.05;;;16.10;93.20;;;;;;5034563;28;20028;-69
2021/08/05 04:52:46;;;;;;;10.60;3.97;;;16.10;93.20;;;;;;5040582;28;20518;-69
2021/08/05 04:55:11;;;;;;;7.47;3.38;;;16.10;93.10;;;;;;5037816;28;20040;-68
2021/08/05 04:57:59;;;;;;;8.65;3.38;;;16.10;93.10;;;;;;5043550;28;20022;-68
2021/08/05 05:00:30;;;;;;;7.13;3.25;;;16.10;93.10;;;;;;5040115;28;20431;-69
2021/08/05 05:02:56;;;;;;;7.53;2.83;;;16.10;93.10;;;;;;5038541;28;20411;-69
2021/08/05 05:05:23;;;;;;;4.38;2.58;;;16.10;93.10;;;;;;5018342;28;20037;-69
2021/08/05 05:07:49;;;;;;;4.30;2.15;;;16.10;93.00;;;;;;5041254;28;20029;-68
2021/08/05 05:10:15;;;;;;;4.82;2.35;;;16.10;93.00;;;;;;5025995;28;20029;-69
2021/08/05 05:12:41;;;;;;;3.90;1.98;;;16.10;92.90;;;;;;5041394;28;20030;-69
2021/08/05 05:15:12;;;;;;;2.33;1.80;;;16.10;93.00;;;;;;5039320;28;20059;-70
2021/08/05 05:17:40;;;;;;;4.03;2.10;;;16.10;92.90;;;;;;5038027;28;20087;-70
2021/08/05 05:20:07;;;;;;;6.80;2.25;;;16.10;92.90;;;;;;5038622;28;20033;-69
2021/08/05 05:22:33;;;;;;;3.75;2.03;;;16.10;92.90;;;;;;5037435;28;20394;-70
2021/08/05 05:24:59;;;;;;;4.22;2.10;;;16.10;92.90;;;;;;5037667;28;20024;-70
2021/08/05 05:27:25;;;;;;;2.75;1.90;;;16.10;92.80;;;;;;5039372;28;20120;-70
2021/08/05 05:29:51;;;;;;;5.25;2.40;;;16.20;92.90;;;;;;5040797;28;20753;-71
2021/08/05 05:32:17;;;;;;;3.40;2.50;;;16.20;92.90;;;;;;5038395;28;21912;-71
2021/08/05 05:34:43;;;;;;;3.42;2.00;;;16.20;93.00;;;;;;5037349;28;20116;-71
2021/08/05 05:37:09;;;;;;;2.70;2.10;;;16.30;92.90;;;;;;5020741;28;20236;-71
2021/08/05 05:39:35;;;;;;;2.67;1.98;;;16.30;92.80;;;;;;5039989;28;20044;-72
2021/08/05 05:42:01;;;;;;;3.45;1.85;;;16.30;92.90;;;;;;5018292;28;20030;-71
2021/08/05 05:44:26;;;;;;;8.75;2.30;;;16.30;92.70;;;;;;5037313;28;20481;-71
2021/08/05 05:46:52;;;;;;;2.95;2.20;;;16.30;92.70;;;;;;5039668;28;20025;-69
2021/08/05 05:49:18;;;;;;;4.20;2.10;;;16.30;92.70;;;;;;5036447;28;20376;-70
2021/08/05 05:51:44;;;;;;;2.95;2.25;;;16.30;92.70;;;;;;5038989;28;20876;-71
2021/08/05 05:54:10;;;;;;;6.70;2.20;;;16.40;92.70;;;;;;5036428;28;20859;-71
2021/08/05 05:56:35;;;;;;;2.92;2.15;;;16.40;92.40;;;;;;5039634;28;20033;-70
2021/08/05 05:59:01;;;;;;;3.67;2.05;;;16.40;92.40;;;;;;5035826;28;20072;-70
2021/08/05 06:01:27;;;;;;;3.15;1.90;;;16.50;92.40;;;;;;5033140;28;20052;-70
2021/08/05 06:03:52;;;;;;;2.78;2.13;;;16.50;92.50;;;;;;5040062;28;20029;-68
2021/08/05 06:06:19;;;;;;;2.50;1.83;;;16.50;92.70;;;;;;5021685;28;20402;-71
2021/08/05 06:08:45;;;;;;;5.15;2.58;;;16.60;92.90;;;;;;5037335;28;20033;-70
2021/08/05 06:11:10;;;;;;;4.28;2.35;;;16.80;92.40;;;;;;5036382;28;20414;-69
2021/08/05 06:13:36;;;;;;;4.55;2.28;;;16.90;92.20;;;;;;5036983;28;20117;-69
2021/08/05 06:16:02;;;;;;;2.70;2.00;;;17.10;92.40;;;;;;5035780;28;20042;-70
2021/08/05 06:18:27;;;;;;;3.25;2.35;;;17.10;92.30;;;;;;5021847;28;20100;-70
2021/08/05 06:20:53;;;;;;;4.55;2.35;;;17.00;92.30;;;;;;5032301;28;20419;-69
2021/08/05 06:23:19;;;;;;;5.20;2.00;;;17.00;92.40;;;;;;5037845;28;20051;-70
2021/08/05 06:25:45;;;;;;;4.90;2.53;;;17.00;92.30;;;;;;5036491;28;20044;-70
2021/08/05 06:28:11;;;;;;;5.72;2.42;;;17.00;92.20;;;;;;5039446;28;20144;-70
2021/08/05 06:30:36;;;;;;;3.85;1.98;;;17.00;92.10;;;;;;5035463;28;20204;-70
2021/08/05 06:33:02;;;;;;;4.95;2.60;;;16.90;92.10;;;;;;5034797;28;20063;-71
2021/08/05 06:35:28;;;;;;;3.58;2.30;;;16.90;92.10;;;;;;5034747;28;20072;-68
2021/08/05 06:37:54;;;;;;;5.35;2.35;;;16.90;92.10;;;;;;5037031;28;20077;-67
2021/08/05 06:40:19;;;;;;;7.32;2.50;;;16.80;91.90;;;;;;5021456;28;20047;-67
2021/08/05 06:42:45;;;;;;;5.18;2.45;;;16.80;92.10;;;;;;5037775;28;20086;-69
2021/08/05 06:45:12;;;;;;;4.95;2.50;;;16.80;92.10;;;;;;5024138;28;20022;-69
2021/08/05 06:47:45;;;;;;;5.28;2.78;;;16.80;92.10;;;;;;5033046;28;20033;-69
2021/08/05 06:50:11;;;;;;;5.32;2.45;;;16.80;91.90;;;;;;5032337;28;20090;-69
2021/08/05 06:52:37;;;;;;;4.53;2.70;;;16.90;92.00;;;;;;5037823;28;20029;-72
2021/08/05 06:55:04;;;;;;;3.85;2.22;;;16.90;92.00;;;;;;5017277;28;20029;-69
2021/08/05 06:57:31;;;;;;;4.68;2.47;;;16.90;91.80;;;;;;5035718;28;20452;-69
2021/08/05 06:59:58;;;;;;;3.13;1.98;;;17.00;91.70;;;;;;5038478;28;20108;-69
2021/08/05 07:02:24;;;;;;;4.95;2.97;;;17.20;91.60;;;;;;5035679;28;20635;-69
2021/08/05 07:04:50;;;;;;;3.90;2.67;;;17.30;91.50;;;;;;5034800;28;20059;-69
2021/08/05 07:07:16;;;;;;;4.68;2.60;;;17.40;91.10;;;;;;5019977;28;21973;-69
2021/08/05 07:09:41;;;;;;;4.25;2.22;;;17.50;91.00;;;;;;5034914;28;20029;-70
2021/08/05 07:12:07;;;;;;;4.82;2.60;;;17.50;90.90;;;;;;5037199;28;20070;-70
2021/08/05 07:14:33;;;;;;;6.05;2.60;;;17.60;90.80;;;;;;5034221;28;20060;-69
2021/08/05 07:16:59;;;;;;;4.20;2.58;;;17.50;90.70;;;;;;5038297;28;20025;-68
2021/08/05 07:19:25;;;;;;;3.72;2.22;;;17.60;90.30;;;;;;5037382;28;20084;-70
2021/08/05 07:21:52;;;;;;;3.38;2.33;;;17.70;90.50;;;;;;5036379;28;20029;-70
2021/08/05 07:24:17;;;;;;;4.75;2.80;;;17.90;90.60;;;;;;5035792;28;20493;-71
2021/08/05 07:26:43;;;;;;;7.45;2.58;;;18.00;90.50;;;;;;5013527;28;20029;-70
2021/08/05 07:29:09;;;;;;;5.38;2.47;;;18.10;90.00;;;;;;5034421;28;20219;-68
2021/08/05 07:31:36;;;;;;;5.72;2.65;;;18.10;90.00;;;;;;5037569;28;20088;-70
2021/08/05 07:34:02;;;;;;;3.28;2.28;;;18.20;89.40;;;;;;5017219;28;20035;-69
2021/08/05 07:36:28;;;;;;;3.67;2.25;;;18.30;89.20;;;;;;5037433;28;20035;-70
2021/08/05 07:38:54;;;;;;;4.25;2.58;;;18.30;89.40;;;;;;5034903;28;20018;-70
2021/08/05 07:41:19;;;;;;;4.88;2.92;;;18.40;88.40;;;;;;5035452;28;20091;-70
2021/08/05 07:43:45;;;;;;;6.50;2.65;;;18.40;88.70;;;;;;5035063;28;20025;-70
2021/08/05 07:46:11;;;;;;;3.45;2.35;;;18.40;88.50;;;;;;5035322;28;20048;-70
2021/08/05 07:48:37;;;;;;;4.10;2.60;;;18.50;88.70;;;;;;5037495;28;20033;-70
2021/08/05 07:51:03;;;;;;;3.15;2.30;;;18.50;87.60;;;;;;5030991;28;20377;-70
2021/08/05 07:53:29;;;;;;;4.38;2.72;;;18.50;87.80;;;;;;5036653;28;20502;-70
2021/08/05 07:55:55;;;;;;;6.20;2.80;;;18.50;88.00;;;;;;5034071;28;20040;-70
2021/08/05 07:58:21;;;;;;;2.92;2.38;;;18.50;88.10;;;;;;5035054;28;20033;-70
2021/08/05 08:00:46;;;;;;;7.22;2.70;;;18.50;88.20;;;;;;5030944;28;20033;-69
2021/08/05 08:03:13;;;;;;;7.40;2.58;;;18.50;87.60;;;;;;5034051;28;20032;-69
2021/08/05 08:05:41;;;;;;;6.03;3.00;;;18.50;88.10;;;;;;5035891;28;20070;-69
2021/08/05 08:08:08;;;;;;;3.92;2.60;;;18.50;88.50;;;;;;5035363;28;20052;-69
2021/08/05 08:10:35;;;;;;;5.43;2.80;;;18.50;87.70;;;;;;5034243;28;20173;-70
2021/08/05 08:13:00;;;;;;;4.28;2.80;;;18.50;87.80;;;;;;5035662;28;20029;-69
2021/08/05 08:15:26;;;;;;;6.28;2.55;;;18.50;87.80;;;;;;5031590;28;20220;-70
2021/08/05 08:17:53;;;;;;;4.47;2.55;;;18.60;87.70;;;;;;5015237;28;20066;-71
2021/08/05 08:20:20;;;;;;;4.65;3.10;;;18.60;88.10;;;;;;5033522;28;20018;-69
2021/08/05 08:22:45;;;;;;;4.93;2.70;;;18.60;87.80;;;;;;5019681;28;20061;-71
2021/08/05 08:25:11;;;;;;;3.53;2.55;;;18.70;87.50;;;;;;5032721;28;20514;-69
2021/08/05 08:27:40;;;;;;;4.65;3.03;;;18.70;87.80;;;;;;5030948;28;20044;-68
2021/08/05 08:30:06;;;;;;;5.00;2.80;;;18.80;87.70;;;;;;5032669;28;20029;-69
2021/08/05 08:32:32;;;;;;;3.25;2.58;;;18.90;87.80;;;;;;5037429;28;20120;-70
2021/08/05 08:34:59;;;;;;;5.07;2.80;;;18.90;87.50;;;;;;5029984;28;20025;-70
2021/08/05 08:37:25;;;;;;;5.07;3.00;;;18.90;88.10;;;;;;5032326;28;20029;-70
2021/08/05 08:39:51;;;;;;;4.65;2.75;;;18.80;87.70;;;;;;5011810;28;20032;-70
2021/08/05 08:42:17;;;;;;;4.20;2.75;;;18.90;88.10;;;;;;5032845;28;20407;-70
2021/08/05 08:44:43;;;;;;;4.68;3.00;;;18.90;87.90;;;;;;5028464;28;20484;-70
2021/08/05 08:47:10;;;;;;;4.38;2.70;;;18.90;88.00;;;;;;5025018;28;20040;-70
2021/08/05 08:49:36;;;;;;;3.83;2.65;;;18.90;88.20;;;;;;5013618;28;20444;-69
2021/08/05 08:52:02;;;;;;;3.42;2.58;;;18.90;88.20;;;;;;5035103;28;20427;-69
2021/08/05 08:54:32;;;;;;;3.95;2.78;;;19.00;88.20;;;;;;5034605;28;20364;-69
2021/08/05 08:56:58;;;;;;;5.57;2.72;;;19.10;88.20;;;;;;5029556;28;20549;-71
2021/08/05 08:59:24;;;;;;;3.13;2.60;;;19.10;88.10;;;;;;5032303;28;20039;-70
2021/08/05 09:01:50;;;;;;;3.88;2.55;;;19.20;88.20;;;;;;5033338;28;20488;-71
2021/08/05 09:04:17;;;;;;;4.35;2.90;;;19.20;88.60;;;;;;5034756;28;20112;-71
2021/08/05 09:06:48;;;;;;;5.55;2.90;;;19.30;88.80;;;;;;5038667;28;20038;-70
2021/08/05 09:09:14;;;;;;;4.45;3.17;;;19.30;88.50;;;;;;5017119;28;21422;-71
2021/08/05 09:11:39;;;;;;;5.50;2.95;;;19.40;88.60;;;;;;5033595;28;20029;-70
2021/08/05 09:14:05;;;;;;;4.70;2.95;;;19.40;87.10;;;;;;5034106;28;20048;-70
2021/08/05 09:16:32;;;;;;;4.47;3.03;;;19.50;87.30;;;;;;5035053;28;20041;-70
2021/08/05 09:19:08;;;;;;;5.40;3.15;;;19.50;87.50;;;;;;5033066;28;20022;-71
2021/08/05 09:21:34;;;;;;;5.85;3.22;;;19.80;87.50;;;;;;5039796;28;20662;-70
2021/08/05 09:24:09;;;;;;;4.15;2.97;;;19.80;86.00;;;;;;5038311;28;20029;-70
2021/08/05 09:26:46;;;;;;;5.47;3.15;;;19.90;85.90;;;;;;5039518;28;20108;-70
2021/08/05 09:29:22;;;;;;;5.30;2.90;;;20.00;85.50;;;;;;5039452;28;20108;-70
2021/08/05 09:31:51;;;;;;;4.20;2.95;;;20.20;85.60;;;;;;5037135;28;20025;-70
2021/08/05 09:34:36;;;;;;;5.65;3.38;;;20.30;85.40;;;;;;5037561;28;20156;-71
2021/08/05 09:37:08;;;;;;;4.03;2.70;;;20.50;84.90;;;;;;5034741;28;20087;-70
2021/08/05 09:39:40;;;;;;;5.53;3.10;;;20.70;84.70;;;;;;5051308;28;20032;-70
2021/08/05 09:42:07;;;;;;;4.57;2.60;;;20.80;84.60;;;;;;5057832;28;20060;-71
2021/08/05 09:44:39;;;;;;;4.10;2.78;;;21.10;84.10;;;;;;5052137;28;20059;-70
2021/08/05 09:47:09;;;;;;;3.92;2.90;;;21.20;82.80;;;;;;5052661;28;20040;-71
2021/08/05 09:49:36;;;;;;;4.70;2.65;;;21.30;82.50;;;;;;5056261;28;20128;-70
2021/08/05 09:52:03;;;;;;;3.80;2.50;;;21.40;81.40;;;;;;5054180;28;20674;-71
2021/08/05 09:54:48;;;;;;;4.90;2.85;;;21.50;80.70;;;;;;5050395;28;20029;-71
2021/08/05 09:57:28;;;;;;;4.82;2.80;;;21.50;81.50;;;;;;5056867;28;20076;-71
2021/08/05 10:00:03;;;;;;;6.05;2.70;;;21.50;81.30;;;;;;5053966;28;20493;-69
2021/08/05 10:02:49;;;;;;;3.67;2.40;;;21.50;81.00;;;;;;5054855;28;20383;-70
2021/08/05 10:05:23;;;;;;;3.58;2.67;;;21.40;80.30;;;;;;5057295;28;20544;-69
2021/08/05 10:07:53;;;;;;;3.05;2.45;;;21.40;81.30;;;;;;5057140;28;20032;-70
2021/08/05 10:10:27;;;;;;;6.97;2.70;;;21.40;80.90;;;;;;5039806;28;20111;-70
2021/08/05 10:13:01;;;;;;;4.00;2.55;;;21.40;81.00;;;;;;5054102;28;20427;-70
2021/08/05 10:15:28;;;;;;;3.20;2.65;;;21.40;80.40;;;;;;5043922;28;20399;-71
2021/08/05 10:17:59;;;;;;;3.78;2.63;;;21.40;79.60;;;;;;5056857;28;20484;-70
2021/08/05 10:20:28;;;;;;;;;;;21.30;79.90;;;;;;5051247;28;20034;-70
2021/08/05 10:22:56;;;;;;;4.03;2.50;;;21.40;79.30;;;;;;5043489;28;20023;-66
2021/08/05 10:25:25;;;;;;;3.50;2.70;;;21.40;80.80;;;;;;5054537;28;20036;-68
2021/08/05 10:27:56;;;;;;;3.72;2.70;;;21.40;80.90;;;;;;5049562;28;20028;-69
2021/08/05 10:30:22;;;;;;;4.25;2.50;;;21.50;80.50;;;;;;5043970;28;20041;-68
2021/08/05 10:32:48;;;;;;;3.38;2.75;;;21.60;80.10;;;;;;5059021;28;20063;-70
2021/08/05 10:35:15;;;;;;;3.53;2.88;;;21.70;80.50;;;;;;5048032;28;20037;-72
2021/08/05 10:37:41;;;;;;;3.20;2.63;;;21.70;79.30;;;;;;5027491;28;20112;-71
2021/08/05 10:40:09;;;;;;;5.53;2.45;;;21.80;76.30;;;;;;5049960;28;20443;-70
2021/08/05 10:42:35;;;;;;;4.40;2.50;;;21.80;76.40;;;;;;5050411;28;20035;-70
2021/08/05 10:45:02;;;;;;;4.28;2.70;;;21.80;77.20;;;;;;5056385;28;20025;-71
2021/08/05 10:47:29;;;;;;;3.30;2.70;;;21.90;76.80;;;;;;5055325;28;20610;-68
2021/08/05 10:50:07;;;;;;;3.88;2.40;;;22.00;75.40;;;;;;5052279;28;20035;-70
2021/08/05 10:52:36;;;;;;;4.22;2.75;;;21.90;76.50;;;;;;5050899;28;20115;-70
2021/08/05 10:55:15;;;;;;;5.95;3.50;;;22.00;75.40;;;;;;5050748;28;20055;-71
2021/08/05 10:57:45;;;;;;;3.67;2.63;;;22.00;76.20;;;;;;5052809;28;20025;-71
2021/08/05 11:00:14;;;;;;;4.22;2.40;;;22.10;76.50;;;;;;5058471;28;20017;-70
2021/08/05 11:02:46;;;;;;;4.20;2.30;;;22.10;74.70;;;;;;5054413;28;20076;-70
2021/08/05 11:05:38;;;;;;;4.70;2.50;;;22.30;76.10;;;;;;5049955;28;20033;-70
2021/08/05 11:08:06;;;;;;;3.78;2.72;;;22.40;74.80;;;;;;5053972;28;20028;-70
2021/08/05 11:10:33;;;;;;;3.65;2.40;;;22.50;74.40;;;;;;5058084;28;20535;-71
2021/08/05 11:13:08;;;;;;;4.60;2.80;;;22.60;75.50;;;;;;5056925;28;20391;-68
2021/08/05 11:15:34;;;;;;;6.53;3.35;;;22.70;72.50;;;;;;5051241;28;20250;-69
2021/08/05 11:18:18;;;;;;;5.25;2.60;;;22.90;71.80;;;;;;5057420;28;20024;-70
2021/08/05 11:20:55;;;;;;;5.15;3.13;;;23.10;70.80;;;;;;5056786;28;20056;-69
2021/08/05 11:25:56;;;;;;;5.78;3.28;;;23.70;68.90;;;;;;5051382;28;20033;-79
2021/08/05 11:28:28;;;;;;;5.40;2.85;;;24.10;69.00;;;;;;5037874;28;20380;-74
2021/08/05 11:31:01;;;;;;;3.83;2.38;;;25.10;69.30;;;;;;5048431;28;20447;-81
2021/08/05 11:33:39;;;;;;;4.50;2.60;;;26.70;66.20;;;;;;5043564;28;20033;-80
2021/08/05 11:36:19;;;;;;;3.88;2.50;;;29.10;59.50;;;;;;5054694;28;20083;-77
2021/08/05 11:39:11;;;;;;;3.53;2.53;;;31.40;52.50;;;;;;5055830;28;20576;-80
2021/08/05 11:41:56;;;;;;;2.92;2.15;;;33.60;46.50;;;;;;5048713;28;20127;-82
2021/08/05 11:44:25;;;;;;;2.85;1.92;;;33.80;41.60;;;;;;5043130;28;20040;-80
2021/08/05 11:47:10;;;;;;;2.88;2.00;;;32.50;43.60;;;;;;5047039;28;20407;-73
2021/08/05 11:49:58;;;;;;;4.35;2.30;;;30.50;44.90;;;;;;5050711;28;20455;-72
2021/08/05 11:52:27;;;;;;;2.60;2.40;;;28.80;48.70;;;;;;5053171;28;20107;-71
2021/08/05 11:54:59;;;;;;;4.70;2.50;;;27.80;51.50;;;;;;5054917;28;20025;-72
2021/08/05 11:57:26;;;;;;;4.53;2.30;;;27.10;51.30;;;;;;5045098;28;20807;-72
2021/08/05 11:59:54;;;;;;;2.90;1.98;;;26.60;52.70;;;;;;5032234;28;20033;-71
2021/08/05 12:02:25;;;;;;;3.00;2.20;;;26.10;54.00;;;;;;5046568;28;20108;-70
2021/08/05 12:04:53;;;;;;;4.32;2.33;;;25.70;56.00;;;;;;5051138;28;20022;-73
2021/08/05 12:07:27;;;;;;;3.03;2.30;;;25.80;57.00;;;;;;5052171;28;20478;-72
2021/08/05 12:10:02;;;;;;;3.08;2.08;;;27.20;57.60;;;;;;5054181;28;20060;-72
2021/08/05 12:12:35;;;;;;;3.97;2.10;;;28.70;53.80;;;;;;5053039;28;20029;-72
2021/08/05 12:15:00;;;;;;;6.25;2.38;;;30.20;49.60;;;;;;5046500;28;20126;-72
2021/08/05 12:17:50;;;;;;;2.97;2.00;;;30.40;47.70;;;;;;5055190;28;20056;-72
2021/08/05 12:20:19;;;;;;;4.65;2.25;;;30.10;48.30;;;;;;5041433;28;20548;-71
2021/08/05 12:22:51;;;;;;;4.10;1.95;;;29.60;47.30;;;;;;5056719;28;20025;-72
2021/08/05 12:25:38;;;;;;;2.00;1.80;;;28.80;49.10;;;;;;5052741;28;20030;-72
2021/08/05 12:28:08;;;;;;;3.35;2.10;;;28.00;50.50;;;;;;5052003;28;20083;-73
2021/08/05 12:30:35;;;;;;;2.72;1.90;;;27.20;52.20;;;;;;5050772;28;20031;-72
2021/08/05 12:33:07;;;;;;;4.28;2.35;;;26.70;54.70;;;;;;5052082;28;20086;-72
2021/08/05 12:35:33;;;;;;;2.80;2.30;;;26.10;54.60;;;;;;5051308;28;20120;-73
2021/08/05 12:38:00;;;;;;;3.80;2.38;;;25.60;56.20;;;;;;5047457;28;20108;-71
2021/08/05 12:40:26;;;;;;;4.30;2.20;;;25.10;57.60;;;;;;5060637;28;20431;-72
2021/08/05 12:42:52;;;;;;;4.15;2.92;;;24.70;59.50;;;;;;5053393;28;20036;-72
2021/08/05 12:45:18;;;;;;;4.38;2.60;;;24.30;59.80;;;;;;5055111;28;20398;-71
2021/08/05 12:47:44;;;;;;;3.25;2.28;;;24.00;61.00;;;;;;5056849;28;20115;-71
2021/08/05 12:50:10;;;;;;;4.05;2.63;;;23.80;61.40;;;;;;5058811;28;20112;-72
2021/08/05 12:52:40;;;;;;;3.88;2.10;;;23.60;62.40;;;;;;5052158;28;20036;-73
2021/08/05 12:55:08;;;;;;;3.17;2.38;;;23.50;62.10;;;;;;5058754;28;20045;-72
2021/08/05 12:57:40;;;;;;;5.00;2.53;;;23.30;63.20;;;;;;5053364;28;20513;-72